createdAt,value
2018-03-21T00:02:07.725Z,11.97
2018-03-21T00:04:35.152Z,14.57
2018-03-21T00:07:02.602Z,12.47
2018-03-21T00:09:30.020Z,12.83
2018-03-21T00:11:57.464Z,16.07
2018-03-21T00:14:24.923Z,14.13
2018-03-21T00:16:52.344Z,11.40
2018-03-21T00:19:19.796Z,14.03
2018-03-21T00:21:47.972Z,14.57
2018-03-21T00:24:15.407Z,14.03
2018-03-21T00:26:42.836Z,12.40
2018-03-21T00:29:10.272Z,12.93
2018-03-21T00:31:37.722Z,11.20
2018-03-21T00:34:05.164Z,10.97
2018-03-21T00:36:32.580Z,11.90
2018-03-21T00:39:00.784Z,11.40
2018-03-21T00:41:28.212Z,11.57
2018-03-21T00:43:55.663Z,11.87
2018-03-21T00:46:23.089Z,10.53
2018-03-21T00:48:50.513Z,12.50
2018-03-21T00:51:18.713Z,10.33
2018-03-21T00:53:46.135Z,9.13
2018-03-21T00:56:13.561Z,9.77
2018-03-21T00:58:41.758Z,8.87
2018-03-21T01:01:09.344Z,8.93
2018-03-21T01:03:36.764Z,9.27
2018-03-21T01:06:04.183Z,8.17
2018-03-21T01:08:31.657Z,9.17
2018-03-21T01:10:59.052Z,8.83
2018-03-21T01:13:26.504Z,8.53
2018-03-21T01:15:53.934Z,10.00
2018-03-21T01:18:21.380Z,8.57
2018-03-21T01:20:48.789Z,9.03
2018-03-21T01:23:17.003Z,8.27
2018-03-21T01:25:44.446Z,8.53
2018-03-21T01:28:11.869Z,8.40
2018-03-21T01:30:39.323Z,10.60
2018-03-21T01:33:06.780Z,9.43
2018-03-21T01:35:34.228Z,8.83
2018-03-21T01:38:01.657Z,8.27
2018-03-21T01:40:29.094Z,9.93
2018-03-21T01:42:56.532Z,11.57
2018-03-21T01:45:23.992Z,10.30
2018-03-21T01:47:51.412Z,9.83
2018-03-21T01:50:18.835Z,8.80
2018-03-21T01:52:46.296Z,8.20
2018-03-21T01:55:13.731Z,7.53
2018-03-21T01:57:41.191Z,9.63
2018-03-21T02:00:08.612Z,10.57
2018-03-21T02:02:36.044Z,8.10
2018-03-21T02:05:03.489Z,7.50
2018-03-21T02:07:30.901Z,8.30
2018-03-21T02:09:59.102Z,8.90
2018-03-21T02:12:26.537Z,11.03
2018-03-21T02:14:53.947Z,8.93
2018-03-21T02:17:21.384Z,11.97
2018-03-21T02:19:48.824Z,10.40
2018-03-21T02:22:17.044Z,11.40
2018-03-21T02:24:44.486Z,11.30
2018-03-21T02:27:11.939Z,8.97
2018-03-21T02:29:39.468Z,9.70
2018-03-21T02:32:06.896Z,8.63
2018-03-21T02:34:34.351Z,9.73
2018-03-21T02:37:01.763Z,9.03
2018-03-21T02:39:29.224Z,9.70
2018-03-21T02:41:56.668Z,11.30
2018-03-21T02:44:24.116Z,15.00
2018-03-21T02:46:51.544Z,7.97
2018-03-21T02:49:18.971Z,9.43
2018-03-21T02:51:46.405Z,10.50
2018-03-21T02:54:13.845Z,9.17
2018-03-21T02:56:42.030Z,8.90
2018-03-21T02:59:09.477Z,10.97
2018-03-21T03:01:36.936Z,8.80
2018-03-21T03:04:04.356Z,9.33
2018-03-21T03:06:31.817Z,9.53
2018-03-21T03:08:59.232Z,10.87
2018-03-21T03:11:26.669Z,13.07
2018-03-21T03:13:54.107Z,11.70
2018-03-21T03:16:21.556Z,11.50
2018-03-21T03:18:48.987Z,11.27
2018-03-21T03:21:16.411Z,10.80
2018-03-21T03:23:43.848Z,13.00
2018-03-21T03:26:11.300Z,10.63
2018-03-21T03:28:38.762Z,10.07
2018-03-21T03:31:06.193Z,12.70
2018-03-21T03:33:33.674Z,11.00
2018-03-21T03:36:01.110Z,12.50
2018-03-21T03:38:28.540Z,11.83
2018-03-21T03:40:55.963Z,13.90
2018-03-21T03:43:23.430Z,16.23
2018-03-21T03:45:50.843Z,18.17
2018-03-21T03:48:18.271Z,10.77
2018-03-21T03:50:45.896Z,11.13
2018-03-21T03:53:14.116Z,11.37
2018-03-21T03:55:41.556Z,10.40
2018-03-21T03:58:08.992Z,10.57
2018-03-21T04:00:36.425Z,13.07
2018-03-21T04:03:03.884Z,10.57
2018-03-21T04:05:31.315Z,14.00
2018-03-21T04:07:58.740Z,9.83
2018-03-21T04:10:26.204Z,12.87
2018-03-21T04:12:53.656Z,11.33
2018-03-21T04:15:21.098Z,12.53
2018-03-21T04:17:48.548Z,11.93
2018-03-21T04:20:16.028Z,10.47
2018-03-21T04:22:43.478Z,13.67
2018-03-21T04:25:10.907Z,9.47
2018-03-21T04:27:39.112Z,11.20
2018-03-21T04:30:06.582Z,15.60
2018-03-21T04:32:34.034Z,13.60
2018-03-21T04:35:01.445Z,11.07
2018-03-21T04:37:28.885Z,14.67
2018-03-21T04:39:56.320Z,12.57
2018-03-21T04:42:23.776Z,17.37
2018-03-21T04:44:51.232Z,12.13
2018-03-21T04:47:18.682Z,12.97
2018-03-21T04:49:46.100Z,14.43
2018-03-21T04:52:13.844Z,15.70
2018-03-21T04:54:41.275Z,15.13
2018-03-21T04:57:08.735Z,15.00
2018-03-21T04:59:36.205Z,13.67
2018-03-21T05:02:03.648Z,12.03
2018-03-21T05:04:31.855Z,19.27
2018-03-21T05:06:59.306Z,14.10
2018-03-21T05:09:26.731Z,14.80
2018-03-21T05:11:54.164Z,17.67
2018-03-21T05:14:21.611Z,21.13
2018-03-21T05:16:49.068Z,16.67
2018-03-21T05:19:16.472Z,16.60
2018-03-21T05:21:43.919Z,16.10
2018-03-21T05:24:13.065Z,16.63
2018-03-21T05:26:40.599Z,21.50
2018-03-21T05:29:08.024Z,20.17
2018-03-21T05:31:35.475Z,18.93
2018-03-21T05:34:02.891Z,19.80
2018-03-21T05:36:30.336Z,18.03
2018-03-21T05:38:57.768Z,16.83
2018-03-21T05:41:25.205Z,17.93
2018-03-21T05:43:52.642Z,15.10
2018-03-21T05:46:20.140Z,14.53
2018-03-21T05:48:47.570Z,15.13
2018-03-21T05:51:15.783Z,19.80
2018-03-21T05:53:43.235Z,16.73
2018-03-21T05:56:10.656Z,21.97
2018-03-21T05:58:38.089Z,17.17
2018-03-21T06:01:06.276Z,15.77
2018-03-21T06:03:33.716Z,16.27
2018-03-21T06:06:01.145Z,18.93
2018-03-21T06:08:28.579Z,19.60
2018-03-21T06:10:56.012Z,19.80
2018-03-21T06:13:24.212Z,17.17
2018-03-21T06:15:51.677Z,27.30
2018-03-21T06:18:19.084Z,16.80
2018-03-21T06:20:46.782Z,19.63
2018-03-21T06:23:14.971Z,18.13
2018-03-21T06:25:42.420Z,17.67
2018-03-21T06:28:09.892Z,18.90
2018-03-21T06:30:37.349Z,14.90
2018-03-21T06:33:04.783Z,21.37
2018-03-21T06:35:32.222Z,18.27
2018-03-21T06:37:59.715Z,19.13
2018-03-21T06:40:27.099Z,16.20
2018-03-21T06:42:54.536Z,15.77
2018-03-21T06:45:21.960Z,14.83
2018-03-21T06:47:49.408Z,15.13
2018-03-21T06:50:16.861Z,13.53
2018-03-21T06:52:44.301Z,15.27
2018-03-21T06:55:11.786Z,12.73
2018-03-21T06:57:39.188Z,13.73
2018-03-21T07:00:06.628Z,14.07
2018-03-21T07:02:34.127Z,17.73
2018-03-21T07:05:01.524Z,14.40
2018-03-21T07:07:28.980Z,16.00
2018-03-21T07:09:56.408Z,14.43
2018-03-21T07:12:23.853Z,13.27
2018-03-21T07:15:03.308Z,15.33
2018-03-21T07:17:31.565Z,14.37
2018-03-21T07:19:58.933Z,15.10
2018-03-21T07:22:26.352Z,11.17
2018-03-21T07:24:54.569Z,13.70
2018-03-21T07:27:21.998Z,12.00
2018-03-21T07:29:49.453Z,14.73
2018-03-21T07:32:16.884Z,12.93
2018-03-21T07:34:44.315Z,11.27
2018-03-21T07:37:11.770Z,14.13
2018-03-21T07:39:39.313Z,14.20
2018-03-21T07:42:06.716Z,12.27
2018-03-21T07:44:34.164Z,16.17
2018-03-21T07:47:01.586Z,12.50
2018-03-21T07:49:29.775Z,12.27
2018-03-21T07:51:57.200Z,11.23
2018-03-21T07:54:25.519Z,12.60
2018-03-21T07:56:52.962Z,13.43
2018-03-21T07:59:21.164Z,12.63
2018-03-21T08:01:48.596Z,13.30
2018-03-21T08:04:16.795Z,13.87
2018-03-21T08:06:44.251Z,10.27
2018-03-21T08:09:11.691Z,9.40
2018-03-21T08:11:39.128Z,10.87
2018-03-21T08:14:06.556Z,9.60
2018-03-21T08:16:33.968Z,11.87
2018-03-21T08:19:01.397Z,8.57
2018-03-21T08:21:29.600Z,9.50
2018-03-21T08:23:57.031Z,6.10
2018-03-21T08:26:24.489Z,7.13
2018-03-21T08:28:51.909Z,6.63
2018-03-21T08:31:19.348Z,6.33
2018-03-21T08:33:46.780Z,5.40
2018-03-21T08:36:14.986Z,8.20
2018-03-21T08:38:42.432Z,7.07
2018-03-21T08:41:09.862Z,8.63
2018-03-21T08:43:37.308Z,7.50
2018-03-21T08:46:04.735Z,8.00
2018-03-21T08:48:32.168Z,7.50
2018-03-21T08:50:59.588Z,10.40
2018-03-21T08:53:27.011Z,8.77
2018-03-21T08:55:55.225Z,7.47
2018-03-21T08:58:22.644Z,11.43
2018-03-21T09:00:50.096Z,7.37
2018-03-21T09:03:17.529Z,6.47
2018-03-21T09:05:44.942Z,5.67
2018-03-21T09:08:13.151Z,6.70
2018-03-21T09:10:40.583Z,6.57
2018-03-21T09:13:08.016Z,6.57
2018-03-21T09:15:35.484Z,6.93
2018-03-21T09:18:02.920Z,9.50
2018-03-21T09:20:30.401Z,9.37
2018-03-21T09:22:57.792Z,7.77
2018-03-21T09:25:25.220Z,7.90
2018-03-21T09:27:52.640Z,6.10
2018-03-21T09:30:20.059Z,8.73
2018-03-21T09:32:48.251Z,9.37
2018-03-21T09:35:15.684Z,8.43
2018-03-21T09:37:43.109Z,8.23
2018-03-21T09:40:11.308Z,7.90
2018-03-21T09:42:38.732Z,6.30
2018-03-21T09:45:06.158Z,6.90
2018-03-21T09:47:34.352Z,6.50
2018-03-21T09:50:01.785Z,5.97
2018-03-21T09:52:29.200Z,4.00
2018-03-21T09:54:57.385Z,4.27
2018-03-21T09:57:24.792Z,7.30
2018-03-21T09:59:53.000Z,4.73
2018-03-21T10:02:20.423Z,4.57
2018-03-21T10:04:47.853Z,4.20
2018-03-21T10:07:15.273Z,3.63
2018-03-21T10:09:43.484Z,3.83
2018-03-21T10:12:10.903Z,5.70
2018-03-21T10:14:38.345Z,3.93
2018-03-21T10:17:05.764Z,5.73
2018-03-21T10:19:33.180Z,4.57
2018-03-21T10:22:00.717Z,4.10
2018-03-21T10:24:28.167Z,5.20
2018-03-21T10:26:55.572Z,3.10
2018-03-21T10:29:23.008Z,4.00
2018-03-21T10:31:50.416Z,3.80
2018-03-21T10:34:18.608Z,5.67
2018-03-21T10:36:46.027Z,5.70
2018-03-21T10:39:13.444Z,4.03
2018-03-21T10:41:41.643Z,3.70
2018-03-21T10:44:09.065Z,3.43
2018-03-21T10:46:37.240Z,3.93
2018-03-21T10:49:04.664Z,2.67
2018-03-21T10:51:32.086Z,3.70
2018-03-21T10:54:00.259Z,3.67
2018-03-21T10:56:27.688Z,2.40
2018-03-21T10:58:55.868Z,2.57
2018-03-21T11:01:28.956Z,3.43
2018-03-21T11:03:56.380Z,4.97
2018-03-21T11:06:24.570Z,3.57
2018-03-21T11:08:51.991Z,3.53
2018-03-21T11:11:19.440Z,3.30
2018-03-21T11:13:46.857Z,3.57
2018-03-21T11:16:15.056Z,3.77
2018-03-21T11:18:42.487Z,3.60
2018-03-21T11:21:09.891Z,5.00
2018-03-21T11:23:38.072Z,3.60
2018-03-21T11:26:05.499Z,4.13
2018-03-21T11:28:33.684Z,3.83
2018-03-21T11:31:01.101Z,4.57
2018-03-21T11:33:28.523Z,3.90
2018-03-21T11:35:56.717Z,3.47
2018-03-21T11:38:24.140Z,5.07
2018-03-21T11:40:51.561Z,4.30
2018-03-21T11:43:18.976Z,3.40
2018-03-21T11:45:46.397Z,3.50
2018-03-21T11:48:13.828Z,4.37
2018-03-21T11:50:41.248Z,3.47
2018-03-21T11:53:08.668Z,5.63
2018-03-21T11:55:36.851Z,3.83
2018-03-21T11:58:04.264Z,4.10
2018-03-21T12:00:31.684Z,3.30
2018-03-21T12:02:59.096Z,3.53
2018-03-21T12:05:26.532Z,2.87
2018-03-21T12:07:53.960Z,3.50
2018-03-21T12:10:21.364Z,3.10
2018-03-21T12:12:48.804Z,3.37
2018-03-21T12:15:16.210Z,3.10
2018-03-21T12:17:43.632Z,4.47
2018-03-21T12:20:11.065Z,3.87
2018-03-21T12:22:38.489Z,3.53
2018-03-21T12:25:05.899Z,3.00
2018-03-21T12:27:33.324Z,2.50
2018-03-21T12:30:00.757Z,2.63
2018-03-21T12:32:28.192Z,2.73
2018-03-21T12:34:55.614Z,2.33
2018-03-21T12:37:23.023Z,2.60
2018-03-21T12:39:50.467Z,3.17
2018-03-21T12:42:17.883Z,2.50
2018-03-21T12:44:45.318Z,2.40
2018-03-21T12:47:12.736Z,2.17
2018-03-21T12:49:40.164Z,2.50
2018-03-21T12:52:07.595Z,2.13
2018-03-21T12:54:35.010Z,3.13
2018-03-21T12:57:02.427Z,3.40
2018-03-21T12:59:29.857Z,1.77
2018-03-21T13:01:57.300Z,3.00
2018-03-21T13:04:24.704Z,2.00
2018-03-21T13:06:52.153Z,2.30
2018-03-21T13:09:19.572Z,5.43
2018-03-21T13:11:47.772Z,2.00
2018-03-21T13:14:15.191Z,2.10
2018-03-21T13:16:42.624Z,2.30
2018-03-21T13:19:10.044Z,2.30
2018-03-21T13:21:38.232Z,2.37
2018-03-21T13:24:05.659Z,1.67
2018-03-21T13:26:33.869Z,2.23
2018-03-21T13:29:01.295Z,1.90
2018-03-21T13:31:28.720Z,5.53
2018-03-21T13:33:56.157Z,2.00
2018-03-21T13:36:24.323Z,1.83
2018-03-21T13:38:51.751Z,2.07
2018-03-21T13:41:19.923Z,2.83
2018-03-21T13:43:47.357Z,3.27
2018-03-21T13:46:15.557Z,2.03
2018-03-21T13:48:42.957Z,2.10
2018-03-21T13:51:10.388Z,1.73
2018-03-21T13:53:37.808Z,1.87
2018-03-21T13:56:05.232Z,1.40
2018-03-21T13:58:32.652Z,1.70
2018-03-21T14:01:00.088Z,2.07
2018-03-21T14:03:27.512Z,1.90
2018-03-21T14:05:54.953Z,3.37
2018-03-21T14:08:22.367Z,2.67
2018-03-21T14:10:50.556Z,1.70
2018-03-21T14:13:17.984Z,1.50
2018-03-21T14:15:45.430Z,1.53
2018-03-21T14:18:13.591Z,2.07
2018-03-21T14:20:41.040Z,1.60
2018-03-21T14:23:08.475Z,1.77
2018-03-21T14:25:35.908Z,3.93
2018-03-21T14:28:03.337Z,2.07
2018-03-21T14:30:31.524Z,1.83
2018-03-21T14:32:58.951Z,2.07
2018-03-21T14:35:26.375Z,2.13
2018-03-21T14:37:54.566Z,1.70
2018-03-21T14:40:21.971Z,1.80
2018-03-21T14:42:50.172Z,1.80
2018-03-21T14:45:17.603Z,2.10
2018-03-21T14:47:45.024Z,2.70
2018-03-21T14:50:13.225Z,1.60
2018-03-21T14:52:40.664Z,1.40
2018-03-21T14:55:08.072Z,1.60
2018-03-21T14:57:35.516Z,1.90
2018-03-21T15:00:03.008Z,2.03
2018-03-21T15:02:30.428Z,1.50
2018-03-21T15:04:57.874Z,2.70
2018-03-21T15:07:25.305Z,2.40
2018-03-21T15:09:52.732Z,3.53
2018-03-21T15:12:20.161Z,4.43
2018-03-21T15:14:47.577Z,1.47
2018-03-21T15:17:15.006Z,1.70
2018-03-21T15:19:42.424Z,1.60
2018-03-21T15:22:09.840Z,1.60
2018-03-21T15:24:37.268Z,2.50
2018-03-21T15:27:04.694Z,1.93
2018-03-21T15:29:32.893Z,1.67
2018-03-21T15:32:00.309Z,1.60
2018-03-21T15:34:27.724Z,2.50
2018-03-21T15:36:55.156Z,1.60
2018-03-21T15:39:22.596Z,1.83
2018-03-21T15:41:50.020Z,1.77
2018-03-21T15:44:17.458Z,1.40
2018-03-21T15:46:44.909Z,2.87
2018-03-21T15:49:12.333Z,1.60
2018-03-21T15:51:39.764Z,1.60
2018-03-21T15:54:07.288Z,1.70
2018-03-21T15:56:34.715Z,1.30
2018-03-21T15:59:02.899Z,8.20
2018-03-21T16:01:30.328Z,1.47
2018-03-21T16:03:57.816Z,1.60
2018-03-21T16:06:25.232Z,2.67
2018-03-21T16:08:52.645Z,4.50
2018-03-21T16:11:20.085Z,1.40
2018-03-21T16:13:48.276Z,2.30
2018-03-21T16:16:15.692Z,1.43
2018-03-21T16:18:43.184Z,1.03
2018-03-21T16:21:10.652Z,2.10
2018-03-21T16:23:38.051Z,2.30
2018-03-21T16:26:05.499Z,1.97
2018-03-21T16:28:32.916Z,10.90
2018-03-21T16:31:00.340Z,3.13
2018-03-21T16:33:27.776Z,1.20
2018-03-21T16:35:55.952Z,1.23
2018-03-21T16:38:23.388Z,1.70
2018-03-21T16:40:50.841Z,1.43
2018-03-21T16:43:18.264Z,1.27
2018-03-21T16:45:45.692Z,1.00
2018-03-21T16:48:13.872Z,1.17
2018-03-21T16:50:41.296Z,1.57
2018-03-21T16:53:09.508Z,0.93
2018-03-21T16:55:36.916Z,0.87
2018-03-21T16:58:04.344Z,1.63
2018-03-21T17:00:32.542Z,1.23
2018-03-21T17:02:59.945Z,1.27
2018-03-21T17:05:28.163Z,0.83
2018-03-21T17:07:55.588Z,1.93
2018-03-21T17:10:23.035Z,0.93
2018-03-21T17:12:50.426Z,1.20
2018-03-21T17:15:18.640Z,1.00
2018-03-21T17:17:46.057Z,1.13
2018-03-21T17:20:13.477Z,0.90
2018-03-21T17:22:40.904Z,1.77
2018-03-21T17:25:09.104Z,2.13
2018-03-21T17:27:36.528Z,2.50
2018-03-21T17:30:03.956Z,1.83
2018-03-21T17:32:32.176Z,1.73
2018-03-21T17:34:59.597Z,1.50
2018-03-21T17:37:27.019Z,2.23
2018-03-21T17:39:54.444Z,2.13
2018-03-21T17:42:21.896Z,3.40
2018-03-21T17:44:49.309Z,1.57
2018-03-21T17:47:17.520Z,2.47
2018-03-21T17:49:44.956Z,1.40
2018-03-21T17:52:12.425Z,1.80
2018-03-21T17:54:39.815Z,4.53
2018-03-21T17:57:07.249Z,4.57
2018-03-21T17:59:34.673Z,3.83
2018-03-21T18:02:02.096Z,4.53
2018-03-21T18:04:29.528Z,2.50
2018-03-21T18:06:56.960Z,1.37
2018-03-21T18:09:24.398Z,1.63
2018-03-21T18:11:51.841Z,2.60
2018-03-21T18:14:19.292Z,4.07
2018-03-21T18:16:46.721Z,4.27
2018-03-21T18:19:14.143Z,3.50
2018-03-21T18:21:41.581Z,2.50
2018-03-21T18:24:08.996Z,2.10
2018-03-21T18:26:37.205Z,3.87
2018-03-21T18:29:04.609Z,4.13
2018-03-21T18:31:32.106Z,3.17
2018-03-21T18:33:59.548Z,3.20
2018-03-21T18:36:26.996Z,2.27
2018-03-21T18:38:54.409Z,2.37
2018-03-21T18:41:21.851Z,2.67
2018-03-21T18:43:49.292Z,2.97
2018-03-21T18:46:16.740Z,2.00
2018-03-21T18:48:44.173Z,1.80
2018-03-21T18:51:11.612Z,1.67
2018-03-21T18:53:39.036Z,3.77
2018-03-21T18:56:06.452Z,6.63
2018-03-21T18:58:33.877Z,11.20
2018-03-21T19:01:02.078Z,6.73
2018-03-21T19:03:29.493Z,6.47
2018-03-21T19:05:57.684Z,3.17
2018-03-21T19:08:25.132Z,2.97
2018-03-21T19:10:52.561Z,5.20
2018-03-21T19:13:20.303Z,2.40
2018-03-21T19:15:48.166Z,4.73
2018-03-21T19:18:15.605Z,5.23
2018-03-21T19:20:43.027Z,4.60
2018-03-21T19:23:10.464Z,5.00
2018-03-21T19:25:37.915Z,6.80
2018-03-21T19:28:06.118Z,4.37
2018-03-21T19:30:33.574Z,3.17
2018-03-21T19:33:00.968Z,6.43
2018-03-21T19:35:28.412Z,4.23
2018-03-21T19:37:55.827Z,7.70
2018-03-21T19:40:24.045Z,7.83
2018-03-21T19:42:51.461Z,3.27
2018-03-21T19:45:18.896Z,9.40
2018-03-21T19:47:46.317Z,6.67
2018-03-21T19:50:14.512Z,5.77
2018-03-21T19:52:41.919Z,3.07
2018-03-21T19:55:09.360Z,4.97
2018-03-21T19:57:37.544Z,7.57
2018-03-21T20:00:04.984Z,7.70
2018-03-21T20:02:32.391Z,3.60
2018-03-21T20:05:00.584Z,6.00
2018-03-21T20:07:28.025Z,4.90
2018-03-21T20:09:55.427Z,8.60
2018-03-21T20:12:23.633Z,5.17
2018-03-21T20:14:51.068Z,8.27
2018-03-21T20:17:18.493Z,5.77
2018-03-21T20:19:45.921Z,11.47
2018-03-21T20:22:14.132Z,11.27
2018-03-21T20:24:41.596Z,12.87
2018-03-21T20:27:09.053Z,7.37
2018-03-21T20:29:36.460Z,6.93
2018-03-21T20:32:03.900Z,7.80
2018-03-21T20:34:31.355Z,6.13
2018-03-21T20:36:58.765Z,8.47
2018-03-21T20:39:26.216Z,10.63
2018-03-21T20:41:53.649Z,7.53
2018-03-21T20:44:21.089Z,10.53
2018-03-21T20:46:48.558Z,6.47
2018-03-21T20:49:15.991Z,7.10
2018-03-21T20:51:43.419Z,9.10
2018-03-21T20:54:10.836Z,6.10
2018-03-21T20:56:38.284Z,8.80
2018-03-21T20:59:05.717Z,9.83
2018-03-21T21:01:33.905Z,9.20
2018-03-21T21:04:01.325Z,8.70
2018-03-21T21:06:28.765Z,8.27
2018-03-21T21:08:56.187Z,9.47
2018-03-21T21:11:24.388Z,11.23
2018-03-21T21:13:51.824Z,12.07
2018-03-21T21:16:19.269Z,9.43
2018-03-21T21:18:46.713Z,8.40
2018-03-21T21:21:14.150Z,11.63
2018-03-21T21:23:41.580Z,11.17
2018-03-21T21:26:09.012Z,11.27
2018-03-21T21:28:36.434Z,8.73
2018-03-21T21:31:04.628Z,11.30
2018-03-21T21:33:32.074Z,8.10
2018-03-21T21:35:59.510Z,15.03
2018-03-21T21:38:26.921Z,14.27
2018-03-21T21:40:55.132Z,10.40
2018-03-21T21:43:22.576Z,11.53
2018-03-21T21:45:50.025Z,9.47
2018-03-21T21:48:17.457Z,8.60
2018-03-21T21:50:44.887Z,12.73
2018-03-21T21:53:12.312Z,9.47
2018-03-21T21:55:41.541Z,11.40
2018-03-21T21:58:08.985Z,10.50
2018-03-21T22:00:36.435Z,11.73
2018-03-21T22:03:03.851Z,10.93
2018-03-21T22:05:31.285Z,9.40
2018-03-21T22:07:58.716Z,16.80
2018-03-21T22:10:26.180Z,15.20
2018-03-21T22:12:53.653Z,12.60
2018-03-21T22:15:21.076Z,14.40
2018-03-21T22:17:49.281Z,12.13
2018-03-21T22:20:16.734Z,11.00
2018-03-21T22:22:44.144Z,16.73
2018-03-21T22:25:12.360Z,13.03
2018-03-21T22:27:39.784Z,9.90
2018-03-21T22:30:07.223Z,10.30
2018-03-21T22:32:34.643Z,13.93
2018-03-21T22:35:02.085Z,12.03
2018-03-21T22:37:29.501Z,9.77
2018-03-21T22:39:57.680Z,11.50
2018-03-21T22:42:25.127Z,11.70
2018-03-21T22:44:52.568Z,10.77
2018-03-21T22:47:20.020Z,12.70
2018-03-21T22:49:47.431Z,7.50
2018-03-21T22:52:15.696Z,7.17
2018-03-21T22:54:43.891Z,9.47
2018-03-21T22:57:11.323Z,7.47
2018-03-21T22:59:38.743Z,11.27
2018-03-21T23:02:06.185Z,7.93
2018-03-21T23:04:34.376Z,9.40
2018-03-21T23:07:01.801Z,12.07
2018-03-21T23:09:29.237Z,8.00
2018-03-21T23:11:56.679Z,13.13
2018-03-21T23:14:24.123Z,8.50
2018-03-21T23:16:51.560Z,9.23
2018-03-21T23:19:19.005Z,8.00
2018-03-21T23:21:46.441Z,10.37
2018-03-21T23:24:14.672Z,11.77
2018-03-21T23:26:42.089Z,10.87
2018-03-21T23:29:09.524Z,9.20
2018-03-21T23:31:36.949Z,11.00
2018-03-21T23:34:04.398Z,9.17
2018-03-21T23:36:31.832Z,8.27
2018-03-21T23:38:59.292Z,11.20
2018-03-21T23:41:26.696Z,7.53
2018-03-21T23:43:54.137Z,9.90
2018-03-21T23:46:21.585Z,11.27
2018-03-21T23:48:49.012Z,8.23
2018-03-21T23:51:16.461Z,7.73
2018-03-21T23:53:44.650Z,9.60
2018-03-21T23:56:12.089Z,10.93
2018-03-21T23:58:39.504Z,7.20
